createdAt,value
2022-11-24T00:02:10.876Z,8.73
2022-11-24T00:04:40.467Z,8.72
2022-11-24T00:07:09.935Z,8.72
2022-11-24T00:09:39.698Z,8.68
2022-11-24T00:12:11.799Z,8.61
2022-11-24T00:14:41.346Z,8.62
2022-11-24T00:17:10.840Z,8.61
2022-11-24T00:19:40.343Z,8.66
2022-11-24T00:22:09.747Z,8.62
2022-11-24T00:24:39.296Z,8.55
2022-11-24T00:27:11.426Z,8.61
2022-11-24T00:29:41.038Z,8.59
2022-11-24T00:32:10.521Z,8.61
2022-11-24T00:34:40.302Z,8.60
2022-11-24T00:37:09.774Z,8.61
2022-11-24T00:39:39.699Z,8.55
2022-11-24T00:42:11.755Z,8.59
2022-11-24T00:44:41.228Z,8.60
2022-11-24T00:47:10.889Z,8.56
2022-11-24T00:49:40.412Z,8.55
2022-11-24T00:52:09.848Z,8.56
2022-11-24T00:54:39.287Z,8.57
2022-11-24T00:57:11.431Z,8.59
2022-11-24T00:59:40.931Z,8.54
2022-11-24T01:02:10.410Z,8.60
2022-11-24T01:04:40.210Z,8.56
2022-11-24T01:07:09.695Z,8.54
2022-11-24T01:09:39.343Z,8.47
2022-11-24T01:12:11.457Z,8.41
2022-11-24T01:14:40.999Z,8.47
2022-11-24T01:17:10.500Z,8.41
2022-11-24T01:19:40.039Z,8.37
2022-11-24T01:22:09.512Z,8.36
2022-11-24T01:24:39.065Z,8.35
2022-11-24T01:27:11.137Z,8.40
2022-11-24T01:29:40.695Z,8.48
2022-11-24T01:32:10.149Z,8.52
2022-11-24T01:34:39.660Z,8.50
2022-11-24T01:37:09.084Z,8.47
2022-11-24T01:39:38.542Z,8.41
2022-11-24T01:42:08.025Z,8.37
2022-11-24T01:44:40.182Z,8.31
2022-11-24T01:47:10.135Z,8.19
2022-11-24T01:49:40.862Z,8.22
2022-11-24T01:52:11.491Z,8.28
2022-11-24T01:54:41.513Z,8.33
2022-11-24T01:57:12.374Z,8.29
2022-11-24T01:59:44.421Z,8.25
2022-11-24T02:02:13.948Z,8.38
2022-11-24T02:04:43.500Z,8.36
2022-11-24T02:07:13.162Z,8.37
2022-11-24T02:09:43.800Z,8.34
2022-11-24T02:12:13.277Z,8.32
2022-11-24T02:14:45.563Z,8.30
2022-11-24T02:17:15.021Z,8.30
2022-11-24T02:19:46.408Z,8.32
2022-11-24T02:22:16.537Z,8.36
2022-11-24T02:24:48.090Z,8.35
2022-11-24T02:27:20.180Z,8.30
2022-11-24T02:29:49.689Z,8.30
2022-11-24T02:32:19.419Z,8.32
2022-11-24T02:34:48.878Z,8.29
2022-11-24T02:37:18.373Z,8.33
2022-11-24T02:39:47.928Z,8.39
2022-11-24T02:42:20.037Z,8.42
2022-11-24T02:44:50.357Z,8.43
2022-11-24T02:47:19.833Z,8.44
2022-11-24T02:49:49.300Z,8.43
2022-11-24T02:52:18.837Z,8.48
2022-11-24T02:54:48.378Z,8.48
2022-11-24T02:57:20.426Z,8.50
2022-11-24T02:59:49.921Z,8.48
2022-11-24T03:02:19.391Z,8.47
2022-11-24T03:04:48.886Z,8.38
2022-11-24T03:07:18.471Z,8.32
2022-11-24T03:09:48.137Z,8.30
2022-11-24T03:12:20.281Z,8.26
2022-11-24T03:14:49.759Z,8.31
2022-11-24T03:17:19.186Z,8.34
2022-11-24T03:19:48.765Z,8.42
2022-11-24T03:22:18.190Z,8.42
2022-11-24T03:24:47.611Z,8.43
2022-11-24T03:27:17.523Z,8.38
2022-11-24T03:29:49.724Z,8.32
2022-11-24T03:32:19.294Z,8.38
2022-11-24T03:34:48.785Z,8.40
2022-11-24T03:37:18.308Z,8.48
2022-11-24T03:39:47.755Z,8.43
2022-11-24T03:42:17.193Z,8.41
2022-11-24T03:44:49.273Z,8.40
2022-11-24T03:47:18.806Z,8.41
2022-11-24T03:49:48.273Z,8.47
2022-11-24T03:52:17.765Z,8.40
2022-11-24T03:54:47.829Z,8.38
2022-11-24T03:57:17.349Z,8.36
2022-11-24T03:59:49.385Z,8.39
2022-11-24T04:02:18.984Z,8.45
2022-11-24T04:04:50.780Z,8.44
2022-11-24T04:07:20.784Z,8.51
2022-11-24T04:09:50.374Z,8.47
2022-11-24T04:12:32.294Z,8.46
2022-11-24T04:15:04.401Z,8.49
2022-11-24T04:17:33.762Z,8.46
2022-11-24T04:20:03.055Z,8.48
2022-11-24T04:22:32.489Z,8.41
2022-11-24T04:25:01.780Z,8.40
2022-11-24T04:27:31.130Z,8.43
2022-11-24T04:30:00.496Z,8.47
2022-11-24T04:32:32.457Z,8.52
2022-11-24T04:35:01.772Z,8.51
2022-11-24T04:37:31.079Z,8.56
2022-11-24T04:40:00.442Z,8.55
2022-11-24T04:42:29.729Z,8.57
2022-11-24T04:44:59.071Z,8.62
2022-11-24T04:47:28.864Z,8.60
2022-11-24T04:50:00.958Z,8.62
2022-11-24T04:52:30.332Z,8.63
2022-11-24T04:54:59.730Z,8.65
2022-11-24T04:57:29.078Z,8.67
2022-11-24T04:59:58.410Z,8.65
2022-11-24T05:02:27.736Z,8.65
2022-11-24T05:04:57.196Z,8.66
2022-11-24T05:07:29.180Z,8.62
2022-11-24T05:10:11.050Z,8.63
2022-11-24T05:12:40.599Z,8.68
2022-11-24T05:15:10.525Z,8.65
2022-11-24T05:17:40.779Z,8.62
2022-11-24T05:20:10.855Z,8.65
2022-11-24T05:22:42.889Z,8.67
2022-11-24T05:25:12.893Z,8.68
2022-11-24T05:27:42.213Z,8.68
2022-11-24T05:30:12.189Z,8.68
2022-11-24T05:32:41.522Z,8.73
2022-11-24T05:35:11.111Z,8.68
2022-11-24T05:37:43.065Z,8.68
2022-11-24T05:40:12.727Z,8.67
2022-11-24T05:42:48.057Z,8.66
2022-11-24T05:45:18.851Z,8.67
2022-11-24T05:47:48.231Z,8.67
2022-11-24T05:50:18.071Z,8.71
2022-11-24T05:52:50.162Z,8.74
2022-11-24T05:55:19.816Z,8.72
2022-11-24T05:57:49.132Z,8.72
2022-11-24T06:00:20.402Z,8.72
2022-11-24T06:02:50.020Z,8.76
2022-11-24T06:05:19.959Z,8.75
2022-11-24T06:07:52.473Z,8.75
2022-11-24T06:10:22.642Z,8.80
2022-11-24T06:12:52.200Z,8.76
2022-11-24T06:15:21.656Z,8.74
2022-11-24T06:17:55.255Z,8.70
2022-11-24T06:20:29.699Z,8.64
2022-11-24T06:23:03.444Z,8.64
2022-11-24T06:25:32.888Z,8.66
2022-11-24T06:28:03.568Z,8.67
2022-11-24T06:30:32.929Z,8.68
2022-11-24T06:33:02.817Z,8.65
2022-11-24T06:35:32.131Z,8.70
2022-11-24T06:38:04.480Z,8.64
2022-11-24T06:40:34.787Z,8.70
2022-11-24T06:43:05.189Z,8.68
2022-11-24T06:45:34.838Z,8.63
2022-11-24T06:48:04.191Z,8.63
2022-11-24T06:50:39.357Z,8.62
2022-11-24T06:53:15.459Z,8.61
2022-11-24T06:55:44.923Z,8.64
2022-11-24T06:58:20.286Z,8.60
2022-11-24T07:00:49.710Z,8.60
2022-11-24T07:03:28.312Z,8.63
2022-11-24T07:06:01.524Z,8.63
2022-11-24T07:08:33.450Z,8.67
2022-11-24T07:11:06.524Z,8.61
2022-11-24T07:13:35.975Z,8.57
2022-11-24T07:16:15.837Z,8.50
2022-11-24T07:18:47.157Z,8.49
2022-11-24T07:21:16.695Z,8.47
2022-11-24T07:23:56.421Z,8.46
2022-11-24T07:26:26.286Z,8.41
2022-11-24T07:29:05.358Z,8.38
2022-11-24T07:31:40.906Z,8.43
2022-11-24T07:34:14.798Z,8.46
2022-11-24T07:36:52.308Z,8.46
2022-11-24T07:39:37.262Z,8.45
2022-11-24T07:42:18.119Z,8.49
2022-11-24T07:44:51.208Z,8.51
2022-11-24T07:47:20.622Z,8.47
2022-11-24T07:49:52.753Z,8.49
2022-11-24T07:52:22.190Z,8.45
2022-11-24T07:54:54.165Z,8.45
2022-11-24T07:57:23.616Z,8.48
2022-11-24T07:59:57.198Z,8.59
2022-11-24T08:02:27.073Z,8.56
2022-11-24T08:04:56.452Z,8.56
2022-11-24T08:07:25.898Z,8.56
2022-11-24T08:09:59.130Z,8.56
2022-11-24T08:12:28.423Z,8.57
2022-11-24T08:14:59.169Z,8.48
2022-11-24T08:17:28.566Z,8.51
2022-11-24T08:20:03.409Z,8.47
2022-11-24T08:22:32.868Z,8.56
2022-11-24T08:25:14.468Z,8.43
2022-11-24T08:27:48.891Z,8.50
2022-11-24T08:30:18.434Z,8.49
2022-11-24T08:32:50.851Z,8.51
2022-11-24T08:35:20.315Z,8.57
2022-11-24T08:37:51.264Z,8.50
2022-11-24T08:40:23.360Z,8.50
2022-11-24T08:43:00.464Z,8.45
2022-11-24T08:45:41.150Z,8.37
2022-11-24T08:48:16.086Z,8.39
2022-11-24T08:50:45.612Z,8.30
2022-11-24T08:53:18.717Z,8.32
2022-11-24T08:55:56.610Z,8.24
2022-11-24T08:58:25.979Z,8.23
2022-11-24T09:01:05.937Z,8.06
2022-11-24T09:03:43.388Z,8.07
2022-11-24T09:06:25.661Z,8.06
2022-11-24T09:11:45.342Z,8.22
2022-11-24T09:14:14.749Z,8.26
2022-11-24T09:16:48.893Z,8.30
2022-11-24T09:19:25.217Z,8.29
2022-11-24T09:21:54.600Z,8.37
2022-11-24T09:24:25.210Z,8.42
2022-11-24T09:27:00.351Z,8.40
2022-11-24T09:29:32.706Z,8.39
2022-11-24T09:32:06.711Z,8.39
2022-11-24T09:34:38.948Z,8.40
2022-11-24T09:37:14.623Z,8.47
2022-11-24T09:39:44.107Z,8.52
2022-11-24T09:42:20.203Z,8.47
2022-11-24T09:45:04.468Z,8.61
2022-11-24T09:47:42.154Z,8.63
2022-11-24T09:50:20.804Z,8.73
2022-11-24T09:53:03.870Z,8.77
2022-11-24T09:55:48.069Z,8.71
2022-11-24T09:58:24.791Z,8.78
2022-11-24T10:00:55.084Z,8.78
2022-11-24T10:03:52.290Z,8.80
2022-11-24T10:06:31.513Z,8.76
2022-11-24T10:09:30.553Z,8.80
2022-11-24T10:12:11.981Z,8.86
2022-11-24T10:14:59.053Z,8.90
2022-11-24T10:17:37.880Z,9.01
2022-11-24T10:20:15.309Z,9.10
2022-11-24T10:22:53.133Z,9.12
2022-11-24T10:25:24.304Z,9.19
2022-11-24T10:27:57.805Z,9.23
2022-11-24T10:30:27.196Z,9.24
2022-11-24T10:33:00.338Z,9.31
2022-11-24T10:35:38.660Z,9.41
2022-11-24T10:38:10.547Z,9.53
2022-11-24T10:40:59.780Z,9.64
2022-11-24T10:43:29.627Z,9.72
2022-11-24T10:45:59.340Z,9.84
2022-11-24T10:48:32.103Z,10.06
2022-11-24T10:51:04.326Z,9.81
2022-11-24T10:53:33.706Z,9.67
2022-11-24T10:56:07.542Z,9.73
2022-11-24T10:58:38.682Z,9.79
2022-11-24T11:01:27.419Z,9.83
2022-11-24T11:04:07.420Z,9.76
2022-11-24T11:06:38.368Z,9.85
2022-11-24T11:09:19.300Z,9.77
2022-11-24T11:11:56.963Z,9.77
2022-11-24T11:14:52.289Z,9.86
2022-11-24T11:17:39.761Z,9.82
2022-11-24T11:20:20.624Z,9.82
2022-11-24T11:22:56.391Z,9.90
2022-11-24T11:25:26.920Z,9.95
2022-11-24T11:28:21.425Z,9.98
2022-11-24T11:36:36.915Z,10.45
2022-11-24T11:39:06.503Z,10.43
2022-11-24T11:41:36.124Z,10.38
2022-11-24T11:44:08.372Z,10.50
2022-11-24T11:46:37.788Z,10.48
2022-11-24T11:49:11.423Z,10.34
2022-11-24T11:51:58.464Z,10.48
2022-11-24T11:54:33.547Z,10.50
2022-11-24T11:57:12.062Z,10.46
2022-11-24T11:59:49.064Z,10.55
2022-11-24T12:02:33.381Z,10.58
2022-11-24T12:05:03.051Z,10.51
2022-11-24T12:07:36.805Z,10.48
2022-11-24T12:10:14.562Z,10.42
2022-11-24T12:12:48.350Z,10.41
2022-11-24T12:15:22.867Z,10.38
2022-11-24T12:17:56.703Z,10.51
2022-11-24T12:20:29.487Z,10.60
2022-11-24T12:23:04.149Z,10.57
2022-11-24T12:25:43.462Z,10.80
2022-11-24T12:28:25.917Z,10.69
2022-11-24T12:31:00.364Z,10.61
2022-11-24T12:33:57.914Z,10.61
2022-11-24T12:36:44.170Z,10.69
2022-11-24T12:39:17.152Z,10.76
2022-11-24T12:41:56.415Z,10.94
2022-11-24T12:44:38.320Z,11.07
2022-11-24T12:47:15.662Z,11.29
2022-11-24T12:49:49.915Z,11.50
2022-11-24T12:52:22.559Z,11.44
2022-11-24T12:54:52.218Z,11.39
2022-11-24T12:57:25.236Z,11.43
2022-11-24T12:59:58.692Z,11.31
2022-11-24T13:02:34.897Z,11.49
2022-11-24T13:05:05.616Z,11.46
2022-11-24T13:07:42.647Z,11.34
2022-11-24T13:10:46.953Z,11.18
2022-11-24T13:13:21.467Z,11.34
2022-11-24T13:16:35.316Z,11.34
2022-11-24T13:19:02.748Z,11.51
2022-11-24T13:21:50.190Z,11.56
2022-11-24T13:24:30.975Z,11.63
2022-11-24T13:27:15.296Z,11.73
2022-11-24T13:29:50.770Z,11.56
2022-11-24T13:32:48.484Z,11.67
2022-11-24T13:35:18.417Z,11.54
2022-11-24T13:37:52.897Z,11.61
2022-11-24T13:40:37.618Z,11.55
2022-11-24T13:43:31.894Z,11.64
2022-11-24T13:46:04.169Z,11.65
2022-11-24T13:48:52.146Z,11.60
2022-11-24T13:51:27.039Z,11.49
2022-11-24T13:54:05.337Z,11.38
2022-11-24T13:56:39.142Z,11.23
2022-11-24T13:59:20.920Z,11.20
2022-11-24T14:01:52.867Z,11.10
2022-11-24T14:04:30.911Z,11.03
2022-11-24T14:07:07.486Z,10.97
2022-11-24T14:09:38.757Z,10.92
2022-11-24T14:12:14.796Z,10.95
2022-11-24T14:15:00.923Z,10.96
2022-11-24T14:17:36.570Z,10.93
2022-11-24T14:20:31.883Z,10.99
2022-11-24T14:23:01.406Z,10.90
2022-11-24T14:25:31.192Z,10.90
2022-11-24T14:28:00.816Z,10.83
2022-11-24T14:30:33.186Z,10.88
2022-11-24T14:33:23.338Z,10.88
2022-11-24T14:35:57.354Z,10.87
2022-11-24T14:38:26.739Z,10.80
2022-11-24T14:40:57.815Z,10.76
2022-11-24T14:43:29.001Z,10.69
2022-11-24T14:45:59.390Z,10.70
2022-11-24T14:48:39.810Z,10.69
2022-11-24T14:51:10.526Z,10.65
2022-11-24T14:53:46.728Z,10.62
2022-11-24T14:56:26.427Z,10.56
2022-11-24T14:59:08.493Z,10.55
2022-11-24T15:01:39.974Z,10.48
2022-11-24T15:04:54.411Z,10.42
2022-11-24T15:07:17.110Z,10.42
2022-11-24T15:09:52.105Z,10.34
2022-11-24T15:12:28.712Z,10.28
2022-11-24T15:14:58.911Z,10.18
2022-11-24T15:17:29.954Z,10.14
2022-11-24T15:20:02.926Z,10.12
2022-11-24T15:22:43.337Z,10.02
2022-11-24T15:25:29.060Z,9.93
2022-11-24T15:38:00.854Z,9.78
2022-11-24T15:40:32.926Z,9.67
2022-11-24T15:43:12.821Z,9.64
2022-11-24T15:45:42.232Z,9.60
2022-11-24T15:48:17.506Z,9.50
2022-11-24T15:50:50.613Z,9.42
2022-11-24T15:53:22.420Z,9.40
2022-11-24T15:55:54.464Z,9.37
2022-11-24T15:58:29.645Z,9.41
2022-11-24T16:00:59.214Z,9.28
2022-11-24T16:03:47.572Z,9.27
2022-11-24T16:06:25.361Z,9.18
2022-11-24T16:08:57.111Z,9.11
2022-11-24T16:11:34.964Z,9.15
2022-11-24T16:14:05.909Z,9.13
2022-11-24T16:16:35.341Z,9.06
2022-11-24T16:19:04.679Z,9.03
2022-11-24T16:21:33.955Z,9.01
2022-11-24T16:24:03.286Z,9.01
2022-11-24T16:26:35.168Z,8.95
2022-11-24T16:29:04.888Z,8.91
2022-11-24T16:31:34.483Z,8.91
2022-11-24T16:34:03.956Z,8.83
2022-11-24T16:36:33.285Z,8.88
2022-11-24T16:39:02.702Z,8.83
2022-11-24T16:41:32.098Z,8.78
2022-11-24T16:44:04.136Z,8.80
2022-11-24T16:46:33.665Z,8.72
2022-11-24T16:49:04.670Z,8.68
2022-11-24T16:51:35.096Z,8.71
2022-11-24T16:54:05.208Z,8.66
2022-11-24T16:56:34.698Z,8.70
2022-11-24T16:59:08.118Z,8.64
2022-11-24T17:01:40.075Z,8.73
2022-11-24T17:04:12.823Z,8.63
2022-11-24T17:06:59.782Z,8.61
2022-11-24T17:09:29.307Z,8.60
2022-11-24T17:11:58.754Z,8.69
2022-11-24T17:14:31.063Z,8.71
2022-11-24T17:17:00.533Z,8.75
2022-11-24T17:19:31.739Z,8.82
2022-11-24T17:22:01.303Z,8.88
2022-11-24T17:24:30.681Z,8.90
2022-11-24T17:27:00.096Z,8.94
2022-11-24T17:29:32.775Z,8.92
2022-11-24T17:32:02.404Z,8.93
2022-11-24T17:34:32.073Z,8.88
2022-11-24T17:37:01.671Z,8.92
2022-11-24T17:39:31.078Z,8.97
2022-11-24T17:42:00.573Z,8.90
2022-11-24T17:44:32.810Z,9.00
2022-11-24T17:47:02.472Z,8.94
2022-11-24T17:49:31.808Z,9.00
2022-11-24T17:52:01.152Z,9.00
2022-11-24T17:54:46.014Z,8.90
2022-11-24T17:57:15.949Z,8.84
2022-11-24T17:59:47.890Z,8.83
2022-11-24T18:02:17.321Z,8.84
2022-11-24T18:04:46.637Z,8.83
2022-11-24T18:07:16.036Z,8.80
2022-11-24T18:09:45.875Z,8.82
2022-11-24T18:12:15.443Z,8.80
2022-11-24T18:14:44.781Z,8.74
2022-11-24T18:17:16.739Z,8.77
2022-11-24T18:19:46.109Z,8.75
2022-11-24T18:22:15.547Z,8.72
2022-11-24T18:24:44.995Z,8.71
2022-11-24T18:27:14.284Z,8.72
2022-11-24T18:29:43.742Z,8.69
2022-11-24T18:32:13.578Z,8.62
2022-11-24T18:34:45.575Z,8.61
2022-11-24T18:37:16.429Z,8.61
2022-11-24T18:39:45.793Z,8.63
2022-11-24T18:42:15.133Z,8.57
2022-11-24T18:44:46.039Z,8.55
2022-11-24T18:47:17.962Z,8.49
2022-11-24T18:49:49.947Z,8.50
2022-11-24T18:52:19.336Z,8.51
2022-11-24T18:54:48.848Z,8.56
2022-11-24T18:57:18.333Z,8.50
2022-11-24T18:59:47.643Z,8.51
2022-11-24T19:02:17.090Z,8.43
2022-11-24T19:04:46.471Z,8.46
2022-11-24T19:07:19.053Z,8.37
2022-11-24T19:09:48.614Z,8.37
2022-11-24T19:12:17.982Z,8.31
2022-11-24T19:14:47.313Z,8.28
2022-11-24T19:17:16.723Z,8.25
2022-11-24T19:19:46.105Z,8.24
2022-11-24T19:22:18.234Z,8.23
2022-11-24T19:24:50.025Z,8.23
2022-11-24T19:27:21.113Z,8.19
2022-11-24T19:29:50.892Z,8.20
2022-11-24T19:32:20.239Z,8.21
2022-11-24T19:34:49.672Z,8.23
2022-11-24T19:37:23.491Z,8.20
2022-11-24T19:39:53.130Z,8.17
2022-11-24T19:42:25.047Z,8.24
2022-11-24T19:44:56.687Z,8.25
2022-11-24T19:47:27.832Z,8.25
2022-11-24T19:49:57.193Z,8.26
2022-11-24T19:52:29.371Z,8.21
2022-11-24T19:54:59.788Z,8.19
2022-11-24T19:57:29.142Z,8.20
2022-11-24T19:59:58.439Z,8.25
2022-11-24T20:02:29.436Z,8.18
2022-11-24T20:04:58.800Z,8.20
2022-11-24T20:07:30.922Z,8.20
2022-11-24T20:10:06.106Z,8.17
2022-11-24T20:12:37.130Z,8.17
2022-11-24T20:15:06.937Z,8.11
2022-11-24T20:17:36.315Z,8.16
2022-11-24T20:20:05.727Z,8.15
2022-11-24T20:22:37.912Z,8.13
2022-11-24T20:25:08.077Z,8.16
2022-11-24T20:27:37.390Z,8.04
2022-11-24T20:30:07.253Z,8.08
2022-11-24T20:32:36.561Z,8.10
2022-11-24T20:35:14.979Z,8.03
2022-11-24T20:37:49.957Z,7.98
2022-11-24T20:40:20.191Z,8.03
2022-11-24T20:42:49.538Z,8.05
2022-11-24T20:45:18.953Z,8.06
2022-11-24T20:47:48.327Z,7.98
2022-11-24T20:50:17.661Z,8.01
2022-11-24T20:52:47.060Z,7.96
2022-11-24T20:55:19.086Z,7.82
2022-11-24T20:57:48.456Z,7.75
2022-11-24T21:00:20.470Z,7.80
2022-11-24T21:02:49.958Z,7.78
2022-11-24T21:05:19.376Z,7.83
2022-11-24T21:07:48.954Z,7.88
2022-11-24T21:10:21.371Z,7.78
2022-11-24T21:12:50.854Z,7.79
2022-11-24T21:15:20.225Z,7.77
2022-11-24T21:17:49.642Z,7.77
2022-11-24T21:20:19.097Z,7.80
2022-11-24T21:22:48.482Z,7.79
2022-11-24T21:25:18.085Z,7.81
2022-11-24T21:27:50.038Z,7.85
2022-11-24T21:30:19.664Z,7.87
2022-11-24T21:32:48.979Z,7.82
2022-11-24T21:35:18.573Z,7.82
2022-11-24T21:37:47.914Z,7.79
2022-11-24T21:40:17.594Z,7.79
2022-11-24T21:42:47.005Z,7.82
2022-11-24T21:45:19.170Z,7.81
2022-11-24T21:47:49.190Z,7.79
2022-11-24T21:50:18.545Z,7.84
2022-11-24T21:52:47.837Z,7.81
2022-11-24T21:55:17.280Z,7.84
2022-11-24T21:57:46.601Z,7.85
2022-11-24T22:00:19.430Z,7.90
2022-11-24T22:02:49.208Z,7.91
2022-11-24T22:05:18.711Z,7.92
2022-11-24T22:07:48.072Z,7.96
2022-11-24T22:10:17.503Z,8.06
2022-11-24T22:12:46.820Z,8.17
2022-11-24T22:15:18.802Z,8.07
2022-11-24T22:17:48.178Z,8.11
2022-11-24T22:20:17.492Z,8.22
2022-11-24T22:22:46.843Z,8.28
2022-11-24T22:25:16.173Z,8.26
2022-11-24T22:27:45.679Z,8.30
2022-11-24T22:30:15.166Z,8.32
2022-11-24T22:32:47.123Z,8.36
2022-11-24T22:35:16.482Z,8.34
2022-11-24T22:37:45.805Z,8.34
2022-11-24T22:40:15.358Z,8.37
2022-11-24T22:42:44.802Z,8.31
2022-11-24T22:45:14.644Z,8.32
2022-11-24T22:47:43.945Z,8.32
2022-11-24T22:50:16.785Z,8.37
2022-11-24T22:52:46.155Z,8.35
2022-11-24T22:55:15.489Z,8.35
2022-11-24T22:57:48.161Z,8.31
2022-11-24T23:00:18.646Z,8.35
2022-11-24T23:02:48.060Z,8.33
2022-11-24T23:05:20.997Z,8.32
2022-11-24T23:07:50.526Z,8.31
2022-11-24T23:10:19.932Z,8.35
2022-11-24T23:12:49.926Z,8.37
2022-11-24T23:15:19.326Z,8.38
2022-11-24T23:17:48.853Z,8.41
2022-11-24T23:20:20.935Z,8.46
2022-11-24T23:22:50.332Z,8.47
2022-11-24T23:25:19.708Z,8.45
2022-11-24T23:27:49.113Z,8.41
2022-11-24T23:30:18.674Z,8.39
2022-11-24T23:32:48.055Z,8.33
2022-11-24T23:35:17.354Z,8.35
2022-11-24T23:38:06.940Z,8.32
2022-11-24T23:40:37.130Z,8.29
2022-11-24T23:43:06.464Z,8.27
2022-11-24T23:45:35.850Z,8.31
2022-11-24T23:48:05.445Z,8.30
2022-11-24T23:50:34.803Z,8.30
2022-11-24T23:53:06.812Z,8.34
2022-11-24T23:55:36.214Z,8.33
2022-11-24T23:58:05.822Z,8.37
